createdAt,value
2018-10-09T00:00:28.130Z,6.90
2018-10-09T00:01:28.115Z,6.60
2018-10-09T00:02:28.091Z,6.40
2018-10-09T00:03:28.072Z,5.90
2018-10-09T00:04:28.050Z,6.40
2018-10-09T00:05:28.030Z,5.80
2018-10-09T00:06:28.008Z,6.30
2018-10-09T00:07:27.984Z,6.00
2018-10-09T00:08:27.969Z,6.10
2018-10-09T00:09:27.941Z,6.00
2018-10-09T00:10:27.918Z,5.90
2018-10-09T00:11:27.900Z,6.20
2018-10-09T00:12:27.876Z,6.40
2018-10-09T00:13:27.856Z,7.20
2018-10-09T00:14:27.839Z,6.40
2018-10-09T00:15:27.816Z,5.90
2018-10-09T00:16:27.794Z,7.00
2018-10-09T00:17:27.774Z,6.30
2018-10-09T00:18:27.753Z,5.80
2018-10-09T00:19:27.732Z,5.70
2018-10-09T00:20:27.709Z,5.40
2018-10-09T00:21:27.696Z,5.30
2018-10-09T00:22:27.670Z,5.80
2018-10-09T00:23:27.649Z,5.50
2018-10-09T00:24:27.626Z,5.50
2018-10-09T00:25:27.609Z,5.60
2018-10-09T00:26:27.588Z,5.70
2018-10-09T00:27:27.564Z,5.80
2018-10-09T00:28:27.546Z,6.20
2018-10-09T00:29:27.520Z,5.80
2018-10-09T00:30:27.498Z,5.60
2018-10-09T00:31:27.476Z,6.10
2018-10-09T00:32:27.456Z,5.70
2018-10-09T00:33:27.438Z,5.80
2018-10-09T00:34:27.409Z,5.80
2018-10-09T00:35:27.396Z,5.50
2018-10-09T00:36:27.374Z,6.00
2018-10-09T00:37:27.349Z,5.70
2018-10-09T00:38:27.330Z,6.00
2018-10-09T00:39:27.308Z,6.30
2018-10-09T00:40:27.289Z,6.40
2018-10-09T00:41:27.268Z,6.30
2018-10-09T00:42:27.248Z,6.50
2018-10-09T00:43:27.224Z,6.30
2018-10-09T00:44:27.199Z,6.70
2018-10-09T00:45:27.183Z,5.70
2018-10-09T00:46:27.163Z,5.80
2018-10-09T00:47:27.145Z,6.20
2018-10-09T00:48:27.121Z,6.10
2018-10-09T00:49:27.100Z,5.90
2018-10-09T00:50:27.075Z,5.40
2018-10-09T00:51:27.058Z,5.80
2018-10-09T00:52:27.040Z,5.40
2018-10-09T00:53:27.012Z,5.70
2018-10-09T00:54:26.992Z,5.40
2018-10-09T00:55:26.972Z,5.30
2018-10-09T00:56:26.945Z,5.70
2018-10-09T00:57:26.928Z,5.90
2018-10-09T00:58:26.905Z,5.20
2018-10-09T00:59:26.885Z,6.30
2018-10-09T01:00:26.862Z,6.20
2018-10-09T01:01:26.848Z,6.00
2018-10-09T01:02:26.822Z,6.20
2018-10-09T01:03:26.803Z,6.10
2018-10-09T01:04:26.785Z,5.90
2018-10-09T01:05:26.761Z,6.60
2018-10-09T01:06:26.746Z,5.90
2018-10-09T01:07:26.718Z,5.70
2018-10-09T01:08:26.690Z,6.10
2018-10-09T01:09:26.678Z,6.20
2018-10-09T01:10:26.657Z,6.20
2018-10-09T01:11:26.633Z,6.10
2018-10-09T01:12:26.606Z,5.70
2018-10-09T01:13:26.587Z,5.60
2018-10-09T01:14:26.565Z,5.70
2018-10-09T01:15:26.550Z,5.60
2018-10-09T01:16:26.526Z,5.80
2018-10-09T01:17:26.506Z,5.80
2018-10-09T01:18:26.481Z,5.80
2018-10-09T01:19:26.464Z,5.70
2018-10-09T01:20:26.434Z,5.60
2018-10-09T01:21:26.414Z,5.40
2018-10-09T01:22:26.396Z,5.10
2018-10-09T01:23:26.378Z,5.70
2018-10-09T01:24:26.354Z,5.70
2018-10-09T01:25:26.338Z,5.30
2018-10-09T01:26:26.308Z,5.20
2018-10-09T01:27:26.290Z,5.50
2018-10-09T01:28:26.264Z,5.40
2018-10-09T01:29:26.254Z,5.10
2018-10-09T01:30:26.223Z,5.30
2018-10-09T01:31:26.252Z,5.00
2018-10-09T01:32:26.182Z,5.60
2018-10-09T01:33:26.161Z,5.80
2018-10-09T01:34:26.142Z,5.90
2018-10-09T01:35:26.118Z,5.90
2018-10-09T01:36:26.096Z,5.40
2018-10-09T01:37:26.071Z,5.50
2018-10-09T01:38:26.056Z,5.70
2018-10-09T01:39:26.032Z,6.00
2018-10-09T01:40:26.012Z,5.50
2018-10-09T01:41:25.992Z,5.50
2018-10-09T01:42:25.974Z,5.40
2018-10-09T01:43:25.950Z,5.40
2018-10-09T01:44:25.926Z,5.40
2018-10-09T01:45:25.908Z,5.90
2018-10-09T01:46:25.886Z,6.60
2018-10-09T01:47:25.864Z,6.00
2018-10-09T01:48:25.840Z,5.50
2018-10-09T01:49:25.819Z,6.20
2018-10-09T01:50:25.798Z,5.90
2018-10-09T01:51:25.782Z,6.00
2018-10-09T01:52:25.758Z,5.60
2018-10-09T01:53:25.736Z,5.80
2018-10-09T01:54:25.712Z,6.00
2018-10-09T01:55:25.700Z,5.90
2018-10-09T01:56:25.673Z,5.80
2018-10-09T01:57:25.648Z,5.70
2018-10-09T01:58:25.628Z,5.70
2018-10-09T01:59:25.608Z,6.30
2018-10-09T02:00:25.590Z,5.40
2018-10-09T02:01:25.566Z,5.70
2018-10-09T02:02:25.540Z,5.20
2018-10-09T02:03:25.519Z,5.80
2018-10-09T02:04:25.502Z,6.20
2018-10-09T02:05:25.486Z,5.50
2018-10-09T02:06:25.456Z,5.60
2018-10-09T02:07:25.435Z,5.60
2018-10-09T02:08:25.417Z,5.80
2018-10-09T02:09:25.389Z,6.10
2018-10-09T02:10:25.372Z,6.00
2018-10-09T02:11:25.350Z,5.50
2018-10-09T02:12:25.328Z,5.90
2018-10-09T02:13:25.303Z,6.20
2018-10-09T02:14:25.286Z,5.90
2018-10-09T02:15:25.267Z,5.70
2018-10-09T02:16:25.238Z,6.30
2018-10-09T02:17:25.220Z,6.40
2018-10-09T02:18:25.204Z,6.10
2018-10-09T02:19:25.182Z,6.40
2018-10-09T02:20:25.156Z,5.70
2018-10-09T02:21:25.134Z,5.80
2018-10-09T02:22:25.114Z,5.70
2018-10-09T02:23:25.093Z,6.00
2018-10-09T02:24:25.070Z,6.10
2018-10-09T02:25:25.050Z,6.20
2018-10-09T02:26:25.028Z,6.20
2018-10-09T02:27:25.010Z,6.20
2018-10-09T02:28:24.983Z,6.00
2018-10-09T02:29:24.965Z,5.90
2018-10-09T02:30:24.944Z,5.80
2018-10-09T02:31:24.917Z,5.90
2018-10-09T02:32:24.894Z,6.00
2018-10-09T02:33:24.935Z,6.10
2018-10-09T02:34:24.853Z,6.00
2018-10-09T02:35:24.832Z,6.40
2018-10-09T02:36:24.805Z,6.00
2018-10-09T02:37:24.799Z,6.00
2018-10-09T02:38:24.771Z,5.80
2018-10-09T02:39:24.746Z,6.10
2018-10-09T02:40:24.728Z,6.40
2018-10-09T02:41:27.932Z,6.30
2018-10-09T02:42:24.682Z,6.40
2018-10-09T02:43:24.656Z,6.30
2018-10-09T02:44:24.637Z,6.30
2018-10-09T02:45:24.616Z,5.90
2018-10-09T02:46:24.591Z,5.90
2018-10-09T02:47:24.575Z,5.50
2018-10-09T02:48:24.549Z,5.90
2018-10-09T02:49:24.531Z,6.00
2018-10-09T02:50:24.513Z,5.90
2018-10-09T02:51:24.487Z,6.10
2018-10-09T02:52:24.464Z,6.00
2018-10-09T02:53:24.443Z,6.20
2018-10-09T02:54:24.426Z,5.70
2018-10-09T02:55:24.402Z,5.60
2018-10-09T02:56:24.383Z,5.90
2018-10-09T02:57:24.360Z,6.40
2018-10-09T02:58:24.336Z,6.00
2018-10-09T02:59:24.315Z,6.20
2018-10-09T03:00:24.295Z,6.20
2018-10-09T03:01:24.273Z,5.90
2018-10-09T03:02:24.245Z,6.30
2018-10-09T03:03:24.229Z,5.90
2018-10-09T03:04:24.207Z,5.40
2018-10-09T03:05:24.186Z,5.80
2018-10-09T03:06:24.166Z,6.10
2018-10-09T03:07:24.144Z,5.80
2018-10-09T03:08:24.169Z,6.30
2018-10-09T03:09:24.096Z,6.20
2018-10-09T03:10:24.084Z,6.20
2018-10-09T03:11:24.056Z,5.80
2018-10-09T03:12:24.036Z,6.20
2018-10-09T03:13:24.010Z,6.10
2018-10-09T03:14:23.997Z,6.30
2018-10-09T03:15:23.966Z,5.90
2018-10-09T03:16:23.947Z,5.60
2018-10-09T03:17:23.928Z,5.80
2018-10-09T03:18:23.903Z,6.10
2018-10-09T03:19:23.881Z,6.30
2018-10-09T03:20:23.858Z,5.90
2018-10-09T03:21:23.849Z,5.90
2018-10-09T03:22:23.820Z,6.40
2018-10-09T03:23:23.795Z,6.20
2018-10-09T03:24:23.783Z,6.40
2018-10-09T03:25:23.753Z,6.30
2018-10-09T03:26:23.730Z,6.40
2018-10-09T03:27:23.715Z,6.30
2018-10-09T03:28:23.719Z,6.20
2018-10-09T03:29:23.662Z,5.90
2018-10-09T03:30:23.646Z,6.00
2018-10-09T03:31:23.622Z,6.50
2018-10-09T03:32:23.602Z,5.80
2018-10-09T03:33:23.579Z,6.10
2018-10-09T03:34:23.561Z,5.90
2018-10-09T03:35:23.537Z,5.60
2018-10-09T03:36:23.512Z,6.40
2018-10-09T03:37:23.497Z,6.10
2018-10-09T03:38:23.467Z,6.00
2018-10-09T03:39:23.449Z,6.70
2018-10-09T03:40:23.427Z,6.20
2018-10-09T03:41:23.405Z,6.10
2018-10-09T03:42:23.385Z,5.70
2018-10-09T03:43:23.361Z,6.20
2018-10-09T03:44:23.342Z,5.80
2018-10-09T03:45:23.317Z,5.50
2018-10-09T03:46:23.295Z,5.90
2018-10-09T03:47:23.280Z,5.80
2018-10-09T03:48:23.255Z,5.70
2018-10-09T03:49:23.233Z,5.90
2018-10-09T03:50:23.211Z,5.90
2018-10-09T03:51:23.187Z,6.00
2018-10-09T03:52:23.169Z,6.40
2018-10-09T03:53:23.145Z,5.80
2018-10-09T03:54:23.121Z,6.20
2018-10-09T03:55:23.101Z,6.10
2018-10-09T03:56:23.079Z,5.60
2018-10-09T03:57:23.058Z,5.90
2018-10-09T03:58:23.033Z,6.10
2018-10-09T03:59:23.017Z,5.60
2018-10-09T04:00:22.995Z,5.60
2018-10-09T04:01:22.971Z,5.80
2018-10-09T04:02:22.953Z,6.40
2018-10-09T04:03:22.924Z,6.00
2018-10-09T04:04:22.905Z,5.70
2018-10-09T04:05:22.885Z,5.90
2018-10-09T04:06:22.863Z,5.70
2018-10-09T04:07:22.842Z,6.00
2018-10-09T04:08:22.818Z,6.00
2018-10-09T04:09:22.855Z,5.60
2018-10-09T04:10:22.780Z,5.50
2018-10-09T04:11:22.760Z,6.00
2018-10-09T04:12:22.733Z,5.70
2018-10-09T04:13:22.709Z,6.40
2018-10-09T04:14:22.687Z,6.30
2018-10-09T04:15:22.667Z,5.80
2018-10-09T04:16:22.643Z,5.70
2018-10-09T04:17:22.621Z,5.30
2018-10-09T04:18:22.604Z,5.80
2018-10-09T04:19:22.599Z,5.60
2018-10-09T04:20:22.557Z,5.30
2018-10-09T04:21:22.536Z,5.40
2018-10-09T04:22:22.512Z,5.80
2018-10-09T04:23:22.493Z,5.80
2018-10-09T04:24:22.469Z,5.80
2018-10-09T04:25:22.444Z,5.90
2018-10-09T04:26:22.431Z,6.10
2018-10-09T04:27:22.403Z,5.80
2018-10-09T04:28:22.387Z,6.00
2018-10-09T04:29:22.429Z,5.20
2018-10-09T04:30:22.339Z,5.40
2018-10-09T04:31:22.319Z,5.70
2018-10-09T04:32:22.295Z,5.90
2018-10-09T04:33:22.275Z,6.20
2018-10-09T04:34:22.256Z,5.90
2018-10-09T04:35:22.235Z,5.90
2018-10-09T04:36:22.212Z,5.70
2018-10-09T04:37:22.185Z,5.80
2018-10-09T04:38:22.163Z,6.30
2018-10-09T04:39:22.143Z,6.00
2018-10-09T04:40:22.119Z,6.10
2018-10-09T04:41:22.098Z,6.00
2018-10-09T04:42:22.080Z,6.10
2018-10-09T04:43:22.060Z,6.00
2018-10-09T04:44:22.034Z,5.90
2018-10-09T04:45:22.034Z,6.10
2018-10-09T04:46:22.005Z,6.10
2018-10-09T04:47:21.972Z,6.20
2018-10-09T04:48:21.999Z,6.40
2018-10-09T04:49:21.976Z,6.60
2018-10-09T04:50:21.904Z,6.90
2018-10-09T04:51:21.879Z,6.90
2018-10-09T04:52:21.863Z,6.20
2018-10-09T04:53:21.838Z,6.60
2018-10-09T04:54:21.817Z,6.10
2018-10-09T04:55:21.847Z,6.50
2018-10-09T04:56:21.775Z,6.20
2018-10-09T04:57:21.749Z,6.20
2018-10-09T04:58:21.734Z,6.30
2018-10-09T04:59:21.712Z,6.30
2018-10-09T05:00:21.684Z,6.20
2018-10-09T05:01:21.659Z,6.70
2018-10-09T05:02:21.641Z,6.50
2018-10-09T05:03:21.619Z,6.30
2018-10-09T05:04:21.596Z,6.90
2018-10-09T05:05:21.582Z,6.30
2018-10-09T05:06:21.557Z,6.20
2018-10-09T05:07:21.533Z,6.10
2018-10-09T05:08:21.512Z,6.40
2018-10-09T05:09:21.491Z,7.20
2018-10-09T05:10:21.472Z,6.70
2018-10-09T05:11:21.449Z,6.30
2018-10-09T05:12:21.427Z,7.40
2018-10-09T05:13:21.405Z,6.70
2018-10-09T05:14:21.383Z,6.90
2018-10-09T05:15:21.355Z,6.10
2018-10-09T05:16:21.339Z,6.80
2018-10-09T05:17:21.314Z,6.30
2018-10-09T05:18:21.297Z,6.00
2018-10-09T05:19:21.270Z,6.20
2018-10-09T05:20:21.261Z,6.80
2018-10-09T05:21:21.230Z,6.70
2018-10-09T05:22:21.222Z,6.80
2018-10-09T05:23:21.232Z,6.90
2018-10-09T05:24:21.163Z,7.40
2018-10-09T05:25:21.144Z,6.80
2018-10-09T05:26:21.121Z,6.70
2018-10-09T05:27:21.100Z,7.20
2018-10-09T05:28:21.075Z,7.80
2018-10-09T05:29:21.055Z,7.30
2018-10-09T05:30:21.035Z,6.70
2018-10-09T05:31:21.039Z,7.30
2018-10-09T05:32:20.995Z,7.00
2018-10-09T05:33:20.968Z,6.70
2018-10-09T05:34:20.947Z,6.80
2018-10-09T05:35:20.929Z,7.00
2018-10-09T05:36:20.903Z,6.90
2018-10-09T05:37:20.881Z,6.50
2018-10-09T05:38:20.860Z,6.80
2018-10-09T05:39:20.840Z,7.80
2018-10-09T05:40:20.819Z,7.50
2018-10-09T05:41:20.795Z,6.70
2018-10-09T05:42:20.774Z,7.40
2018-10-09T05:43:20.752Z,6.80
2018-10-09T05:44:20.812Z,7.30
2018-10-09T05:45:20.707Z,6.70
2018-10-09T05:46:20.690Z,7.60
2018-10-09T05:47:20.671Z,7.70
2018-10-09T05:48:20.643Z,6.70
2018-10-09T05:49:20.623Z,7.00
2018-10-09T05:50:20.609Z,6.80
2018-10-09T05:51:20.583Z,6.40
2018-10-09T05:52:20.557Z,7.10
2018-10-09T05:53:20.539Z,6.60
2018-10-09T05:54:20.517Z,6.50
2018-10-09T05:55:20.497Z,7.70
2018-10-09T05:56:20.470Z,7.90
2018-10-09T05:57:20.449Z,7.30
2018-10-09T05:58:20.430Z,7.20
2018-10-09T05:59:20.408Z,6.60
2018-10-09T06:00:20.385Z,9.00
2018-10-09T06:01:20.365Z,7.80
2018-10-09T06:02:20.339Z,7.00
2018-10-09T06:03:20.321Z,7.70
2018-10-09T06:04:20.297Z,8.40
2018-10-09T06:05:20.278Z,8.70
2018-10-09T06:06:20.256Z,8.60
2018-10-09T06:07:20.237Z,8.20
2018-10-09T06:08:20.213Z,7.90
2018-10-09T06:09:20.199Z,7.10
2018-10-09T06:10:20.170Z,6.60
2018-10-09T06:11:20.149Z,6.80
2018-10-09T06:12:20.125Z,7.60
2018-10-09T06:13:20.109Z,7.30
2018-10-09T06:14:20.084Z,8.10
2018-10-09T06:15:20.094Z,7.50
2018-10-09T06:16:20.037Z,7.00
2018-10-09T06:17:20.025Z,7.30
2018-10-09T06:18:19.999Z,6.30
2018-10-09T06:19:19.982Z,7.80
2018-10-09T06:20:19.961Z,8.10
2018-10-09T06:21:19.985Z,7.30
2018-10-09T06:22:19.978Z,7.50
2018-10-09T06:23:19.897Z,8.00
2018-10-09T06:24:19.875Z,7.20
2018-10-09T06:25:19.848Z,7.00
2018-10-09T06:26:19.824Z,7.70
2018-10-09T06:27:19.811Z,7.20
2018-10-09T06:28:19.828Z,7.60
2018-10-09T06:29:19.761Z,6.80
2018-10-09T06:30:19.743Z,6.70
2018-10-09T06:31:19.718Z,7.60
2018-10-09T06:32:19.697Z,7.30
2018-10-09T06:33:19.676Z,7.30
2018-10-09T06:34:19.657Z,7.70
2018-10-09T06:35:19.634Z,7.40
2018-10-09T06:36:19.612Z,7.50
2018-10-09T06:37:19.704Z,6.80
2018-10-09T06:38:19.566Z,8.70
2018-10-09T06:39:19.550Z,6.90
2018-10-09T06:40:19.529Z,6.70
2018-10-09T06:41:19.520Z,7.30
2018-10-09T06:42:19.488Z,8.50
2018-10-09T06:43:19.463Z,9.50
2018-10-09T06:44:19.459Z,10.50
2018-10-09T06:45:19.425Z,14.00
2018-10-09T06:46:19.400Z,14.60
2018-10-09T06:47:19.383Z,15.80
2018-10-09T06:48:19.365Z,15.80
2018-10-09T06:49:19.343Z,17.10
2018-10-09T06:50:19.321Z,18.40
2018-10-09T06:51:19.296Z,18.50
2018-10-09T06:52:19.274Z,16.90
2018-10-09T06:53:19.308Z,17.70
2018-10-09T06:54:19.317Z,19.30
2018-10-09T06:55:19.219Z,20.70
2018-10-09T06:56:19.190Z,21.50
2018-10-09T06:57:19.174Z,17.30
2018-10-09T06:58:19.155Z,18.10
2018-10-09T06:59:19.125Z,18.80
2018-10-09T07:00:19.224Z,19.10
2018-10-09T07:01:19.086Z,19.80
2018-10-09T07:02:19.066Z,17.10
2018-10-09T07:03:19.046Z,17.50
2018-10-09T07:04:19.026Z,19.70
2018-10-09T07:05:19.006Z,18.00
2018-10-09T07:06:18.979Z,20.10
2018-10-09T07:07:18.961Z,19.30
2018-10-09T07:08:18.940Z,18.40
2018-10-09T07:09:18.966Z,20.30
2018-10-09T07:10:18.899Z,20.00
2018-10-09T07:11:19.049Z,18.30
2018-10-09T07:12:18.857Z,19.20
2018-10-09T07:13:18.841Z,21.00
2018-10-09T07:14:18.825Z,19.40
2018-10-09T07:15:18.801Z,17.30
2018-10-09T07:16:18.781Z,20.40
2018-10-09T07:17:18.753Z,20.90
2018-10-09T07:18:18.733Z,20.40
2018-10-09T07:19:18.717Z,21.20
2018-10-09T07:20:18.691Z,20.70
2018-10-09T07:21:18.673Z,21.00
2018-10-09T07:22:18.651Z,20.70
2018-10-09T07:23:18.629Z,21.50
2018-10-09T07:24:18.607Z,21.10
2018-10-09T07:25:18.591Z,20.50
2018-10-09T07:26:18.569Z,19.30
2018-10-09T07:27:18.551Z,21.00
2018-10-09T07:28:18.529Z,19.40
2018-10-09T07:29:18.509Z,21.30
2018-10-09T07:30:18.486Z,20.70
2018-10-09T07:31:18.470Z,19.90
2018-10-09T07:32:18.457Z,20.20
2018-10-09T07:33:18.425Z,23.40
2018-10-09T07:34:18.407Z,24.00
2018-10-09T07:35:18.382Z,23.30
2018-10-09T07:36:18.365Z,21.80
2018-10-09T07:37:18.345Z,22.00
2018-10-09T07:38:18.325Z,23.90
2018-10-09T07:39:18.304Z,21.10
2018-10-09T07:40:18.291Z,21.50
2018-10-09T07:41:18.266Z,20.50
2018-10-09T07:42:18.245Z,21.50
2018-10-09T07:43:18.227Z,24.40
2018-10-09T07:44:18.260Z,20.60
2018-10-09T07:45:18.187Z,23.10
2018-10-09T07:46:18.171Z,21.90
2018-10-09T07:47:18.145Z,23.30
2018-10-09T07:48:18.124Z,23.50
2018-10-09T07:49:18.103Z,22.40
2018-10-09T07:50:18.085Z,22.70
2018-10-09T07:51:18.071Z,22.40
2018-10-09T07:52:18.043Z,21.90
2018-10-09T07:53:18.024Z,22.10
2018-10-09T07:54:18.005Z,21.50
2018-10-09T07:55:17.986Z,21.90
2018-10-09T07:56:17.975Z,21.50
2018-10-09T07:57:17.947Z,22.30
2018-10-09T07:58:17.931Z,21.80
2018-10-09T07:59:17.911Z,21.20
2018-10-09T08:00:17.887Z,21.40
2018-10-09T08:01:17.868Z,20.90
2018-10-09T08:02:17.851Z,21.30
2018-10-09T08:03:17.829Z,20.40
2018-10-09T08:04:17.810Z,21.20
2018-10-09T08:05:17.793Z,21.50
2018-10-09T08:06:17.777Z,21.90
2018-10-09T08:07:17.754Z,21.70
2018-10-09T08:08:17.735Z,21.40
2018-10-09T08:09:17.709Z,21.50
2018-10-09T08:10:17.705Z,20.70
2018-10-09T08:11:17.675Z,20.90
2018-10-09T08:12:17.659Z,19.60
2018-10-09T08:13:17.666Z,21.10
2018-10-09T08:14:17.619Z,19.50
2018-10-09T08:15:17.600Z,20.30
2018-10-09T08:16:17.641Z,19.50
2018-10-09T08:17:17.562Z,20.50
2018-10-09T08:18:17.539Z,20.10
2018-10-09T08:19:17.523Z,20.30
2018-10-09T08:20:17.501Z,19.90
2018-10-09T08:21:17.493Z,19.90
2018-10-09T08:22:17.491Z,19.40
2018-10-09T08:23:17.451Z,20.80
2018-10-09T08:24:17.427Z,19.30
2018-10-09T08:25:17.421Z,19.50
2018-10-09T08:26:17.393Z,18.90
2018-10-09T08:27:17.379Z,20.30
2018-10-09T08:28:17.355Z,20.10
2018-10-09T08:29:17.336Z,20.50
2018-10-09T08:30:17.319Z,20.30
2018-10-09T08:31:17.301Z,20.00
2018-10-09T08:32:17.343Z,20.50
2018-10-09T08:33:17.265Z,20.60
2018-10-09T08:34:17.242Z,21.70
2018-10-09T08:35:17.229Z,20.90
2018-10-09T08:36:17.209Z,20.80
2018-10-09T08:37:17.191Z,20.20
2018-10-09T08:38:17.170Z,20.00
2018-10-09T08:39:17.154Z,20.40
2018-10-09T08:40:17.190Z,20.50
2018-10-09T08:41:17.124Z,20.80
2018-10-09T08:42:17.101Z,20.50
2018-10-09T08:43:17.077Z,20.10
2018-10-09T08:44:17.062Z,21.40
2018-10-09T08:45:17.044Z,20.70
2018-10-09T08:46:17.085Z,19.90
2018-10-09T08:47:17.006Z,19.60
2018-10-09T08:48:16.991Z,20.20
2018-10-09T08:49:16.977Z,22.20
2018-10-09T08:50:16.961Z,22.90
2018-10-09T08:51:16.939Z,22.70
2018-10-09T08:52:16.924Z,29.00
2018-10-09T08:53:16.903Z,44.60
2018-10-09T08:54:16.887Z,27.80
2018-10-09T08:55:16.869Z,27.30
2018-10-09T08:56:16.864Z,26.50
2018-10-09T08:57:16.883Z,23.10
2018-10-09T08:58:16.820Z,21.90
2018-10-09T08:59:16.804Z,22.60
2018-10-09T09:00:16.786Z,22.00
2018-10-09T09:01:16.765Z,22.90
2018-10-09T09:02:16.747Z,21.80
2018-10-09T09:03:16.731Z,22.10
2018-10-09T09:04:16.716Z,23.60
2018-10-09T09:05:16.699Z,23.90
2018-10-09T09:06:16.683Z,22.90
2018-10-09T09:07:16.667Z,23.50
2018-10-09T09:08:16.650Z,21.90
2018-10-09T09:09:16.636Z,22.20
2018-10-09T09:10:16.616Z,22.70
2018-10-09T09:11:16.600Z,22.30
2018-10-09T09:12:16.586Z,22.40
2018-10-09T09:13:16.566Z,22.30
2018-10-09T09:14:16.547Z,22.40
2018-10-09T09:15:16.559Z,23.00
2018-10-09T09:16:16.521Z,22.80
2018-10-09T09:17:16.501Z,23.20
2018-10-09T09:18:16.489Z,22.50
2018-10-09T09:19:16.475Z,22.10
2018-10-09T09:20:16.452Z,22.50
2018-10-09T09:21:16.458Z,22.00
2018-10-09T09:22:16.421Z,22.60
2018-10-09T09:23:16.404Z,22.70
2018-10-09T09:24:16.395Z,23.10
2018-10-09T09:25:16.375Z,22.10
2018-10-09T09:26:16.436Z,22.30
2018-10-09T09:27:16.535Z,23.80
2018-10-09T09:28:16.325Z,23.20
2018-10-09T09:29:16.309Z,24.30
2018-10-09T09:30:16.293Z,23.40
2018-10-09T09:31:16.277Z,23.20
2018-10-09T09:32:16.261Z,23.30
2018-10-09T09:33:16.273Z,23.70
2018-10-09T09:34:16.227Z,23.20
2018-10-09T09:35:16.215Z,24.30
2018-10-09T09:36:16.199Z,24.20
2018-10-09T09:37:16.177Z,23.50
2018-10-09T09:38:16.164Z,24.20
2018-10-09T09:39:16.151Z,25.10
2018-10-09T09:40:16.133Z,23.70
2018-10-09T09:41:16.115Z,23.20
2018-10-09T09:42:16.104Z,24.30
2018-10-09T09:43:16.090Z,23.20
2018-10-09T09:44:16.068Z,25.00
2018-10-09T09:45:16.056Z,23.30
2018-10-09T09:46:16.064Z,21.40
2018-10-09T09:47:16.032Z,21.00
2018-10-09T09:48:16.006Z,21.20
2018-10-09T09:49:15.990Z,21.80
2018-10-09T09:50:15.978Z,21.50
2018-10-09T09:51:15.963Z,21.90
2018-10-09T09:52:16.040Z,22.20
2018-10-09T09:53:15.932Z,22.00
2018-10-09T09:54:15.921Z,21.30
2018-10-09T09:55:15.908Z,20.00
2018-10-09T09:56:15.887Z,21.60
2018-10-09T09:57:15.875Z,20.80
2018-10-09T09:58:15.963Z,20.40
2018-10-09T09:59:15.899Z,19.90
2018-10-09T10:00:15.833Z,20.80
2018-10-09T10:01:15.815Z,20.60
2018-10-09T10:02:15.811Z,19.80
2018-10-09T10:03:15.790Z,20.20
2018-10-09T10:04:15.774Z,21.00
2018-10-09T10:05:15.759Z,21.40
2018-10-09T10:06:15.748Z,19.60
2018-10-09T10:07:15.734Z,20.30
2018-10-09T10:08:15.716Z,21.10
2018-10-09T10:09:15.738Z,20.60
2018-10-09T10:10:15.694Z,20.50
2018-10-09T10:11:15.682Z,21.80
2018-10-09T10:12:15.664Z,19.80
2018-10-09T10:13:15.658Z,19.70
2018-10-09T10:14:15.641Z,19.00
2018-10-09T10:15:15.629Z,18.90
2018-10-09T10:16:15.616Z,19.10
2018-10-09T10:17:15.601Z,19.00
2018-10-09T10:18:15.589Z,18.70
2018-10-09T10:19:15.575Z,17.10
2018-10-09T10:20:15.567Z,18.60
2018-10-09T10:21:15.592Z,17.70
2018-10-09T10:22:15.535Z,17.70
2018-10-09T10:23:15.529Z,18.30
2018-10-09T10:24:15.513Z,18.50
2018-10-09T10:25:15.500Z,17.80
2018-10-09T10:26:15.488Z,17.80
2018-10-09T10:27:15.476Z,17.60
2018-10-09T10:28:15.462Z,17.90
2018-10-09T10:29:15.543Z,16.30
2018-10-09T10:30:15.440Z,17.10
2018-10-09T10:31:15.432Z,15.80
2018-10-09T10:32:15.424Z,16.70
2018-10-09T10:33:15.405Z,15.50
2018-10-09T10:34:15.397Z,15.50
2018-10-09T10:35:15.391Z,16.10
2018-10-09T10:36:15.376Z,16.30
2018-10-09T10:37:15.380Z,15.80
2018-10-09T10:38:15.355Z,15.30
2018-10-09T10:39:15.348Z,16.40
2018-10-09T10:40:15.338Z,15.30
2018-10-09T10:41:15.326Z,16.20
2018-10-09T10:42:15.386Z,17.50
2018-10-09T10:43:15.305Z,16.00
2018-10-09T10:44:15.292Z,16.60
2018-10-09T10:45:15.282Z,16.30
2018-10-09T10:46:15.272Z,15.40
2018-10-09T10:47:15.262Z,16.30
2018-10-09T10:48:15.248Z,13.90
2018-10-09T10:49:15.265Z,14.00
2018-10-09T10:50:15.234Z,14.40
2018-10-09T10:51:15.226Z,15.40
2018-10-09T10:52:15.215Z,15.30
2018-10-09T10:53:15.200Z,14.50
2018-10-09T10:54:15.194Z,14.40
2018-10-09T10:55:15.189Z,13.40
2018-10-09T10:56:15.174Z,13.00
2018-10-09T10:57:15.168Z,13.00
2018-10-09T10:58:15.162Z,12.20
2018-10-09T10:59:15.147Z,14.00
2018-10-09T11:00:15.143Z,13.50
2018-10-09T11:01:15.174Z,15.40
2018-10-09T11:02:15.124Z,16.00
2018-10-09T11:03:15.110Z,15.50
2018-10-09T11:04:15.102Z,15.40
2018-10-09T11:05:15.094Z,14.80
2018-10-09T11:06:15.105Z,14.50
2018-10-09T11:07:15.078Z,13.90
2018-10-09T11:08:15.077Z,13.90
2018-10-09T11:09:15.061Z,13.00
2018-10-09T11:10:15.048Z,12.80
2018-10-09T11:11:15.044Z,12.20
2018-10-09T11:12:15.031Z,12.30
2018-10-09T11:13:15.028Z,12.80
2018-10-09T11:14:15.016Z,13.00
2018-10-09T11:15:15.010Z,12.80
2018-10-09T11:16:15.004Z,12.50
2018-10-09T11:17:14.992Z,13.20
2018-10-09T11:18:14.982Z,13.50
2018-10-09T11:19:14.973Z,12.50
2018-10-09T11:20:14.960Z,12.80
2018-10-09T11:21:15.025Z,12.00
2018-10-09T11:22:14.948Z,11.90
2018-10-09T11:23:14.937Z,12.30
2018-10-09T11:24:14.934Z,12.10
2018-10-09T11:25:14.921Z,12.00
2018-10-09T11:26:14.911Z,12.40
2018-10-09T11:27:14.904Z,13.40
2018-10-09T11:28:14.895Z,13.00
2018-10-09T11:29:14.886Z,13.20
2018-10-09T11:30:14.881Z,12.70
2018-10-09T11:31:14.868Z,12.30
2018-10-09T11:32:14.870Z,11.70
2018-10-09T11:33:14.851Z,12.40
2018-10-09T11:34:14.843Z,11.90
2018-10-09T11:35:14.836Z,11.20
2018-10-09T11:36:14.822Z,11.30
2018-10-09T11:37:14.817Z,12.60
2018-10-09T11:38:14.844Z,11.60
2018-10-09T11:39:14.803Z,11.30
2018-10-09T11:40:14.789Z,11.70
2018-10-09T11:41:14.776Z,11.80
2018-10-09T11:42:14.767Z,11.90
2018-10-09T11:43:14.756Z,11.90
2018-10-09T11:44:14.748Z,11.10
2018-10-09T11:45:14.737Z,11.10
2018-10-09T11:46:14.726Z,10.80
2018-10-09T11:47:14.718Z,10.40
2018-10-09T11:48:14.714Z,11.70
2018-10-09T11:49:14.699Z,10.70
2018-10-09T11:50:14.706Z,11.20
2018-10-09T11:51:14.680Z,11.60
2018-10-09T11:52:14.677Z,10.60
2018-10-09T11:53:14.655Z,10.90
2018-10-09T11:54:14.651Z,11.00
2018-10-09T11:55:14.638Z,11.50
2018-10-09T11:56:14.633Z,9.60
2018-10-09T11:57:14.620Z,10.70
2018-10-09T11:58:14.610Z,9.50
2018-10-09T11:59:14.602Z,9.80
2018-10-09T12:00:14.591Z,10.20
2018-10-09T12:01:14.583Z,9.80
2018-10-09T12:02:14.572Z,9.60
2018-10-09T12:03:14.560Z,9.80
2018-10-09T12:04:14.549Z,9.10
2018-10-09T12:05:14.537Z,8.90
2018-10-09T12:06:14.539Z,8.90
2018-10-09T12:07:14.518Z,9.50
2018-10-09T12:08:14.507Z,8.70
2018-10-09T12:09:14.522Z,8.50
2018-10-09T12:10:14.488Z,11.60
2018-10-09T12:11:14.477Z,11.60
2018-10-09T12:12:14.474Z,10.10
2018-10-09T12:13:14.467Z,9.90
2018-10-09T12:14:14.449Z,10.00
2018-10-09T12:15:14.444Z,14.20
2018-10-09T12:16:14.432Z,12.20
2018-10-09T12:17:14.419Z,9.90
2018-10-09T12:18:14.411Z,9.30
2018-10-09T12:19:14.403Z,9.60
2018-10-09T12:20:14.393Z,9.60
2018-10-09T12:21:14.419Z,8.70
2018-10-09T12:22:14.377Z,9.20
2018-10-09T12:23:14.361Z,8.60
2018-10-09T12:24:14.351Z,9.50
2018-10-09T12:25:14.343Z,8.90
2018-10-09T12:26:14.334Z,9.50
2018-10-09T12:27:14.512Z,8.80
2018-10-09T12:28:14.310Z,9.00
2018-10-09T12:29:14.306Z,8.60
2018-10-09T12:30:14.291Z,8.60
2018-10-09T12:31:14.279Z,9.70
2018-10-09T12:32:14.266Z,9.00
2018-10-09T12:33:14.263Z,9.90
2018-10-09T12:34:14.249Z,9.60
2018-10-09T12:35:14.235Z,9.80
2018-10-09T12:36:14.231Z,10.30
2018-10-09T12:37:14.215Z,10.10
2018-10-09T12:38:14.235Z,9.50
2018-10-09T12:39:14.247Z,10.00
2018-10-09T12:40:14.185Z,9.90
2018-10-09T12:41:14.181Z,10.40
2018-10-09T12:42:14.162Z,9.80
2018-10-09T12:43:14.153Z,10.00
2018-10-09T12:44:14.181Z,9.80
2018-10-09T12:45:14.128Z,11.00
2018-10-09T12:46:14.117Z,10.20
2018-10-09T12:47:14.111Z,10.30
2018-10-09T12:48:14.099Z,10.40
2018-10-09T12:49:14.088Z,11.00
2018-10-09T12:50:14.075Z,10.20
2018-10-09T12:51:14.064Z,9.90
2018-10-09T12:52:14.053Z,9.80
2018-10-09T12:53:14.041Z,9.30
2018-10-09T12:54:14.031Z,9.80
2018-10-09T12:55:14.018Z,9.80
2018-10-09T12:56:14.017Z,9.70
2018-10-09T12:57:14.131Z,9.20
2018-10-09T12:58:13.983Z,9.30
2018-10-09T12:59:13.975Z,9.70
2018-10-09T13:00:13.962Z,9.60
2018-10-09T13:01:13.958Z,9.20
2018-10-09T13:02:13.938Z,9.20
2018-10-09T13:03:13.991Z,8.40
2018-10-09T13:04:13.915Z,9.10
2018-10-09T13:05:13.903Z,9.20
2018-10-09T13:06:13.893Z,8.60
2018-10-09T13:07:13.895Z,8.90